createdAt,value
2019-02-26T00:01:34.792Z,15.17
2019-02-26T00:04:04.345Z,13.57
2019-02-26T00:06:33.918Z,15.50
2019-02-26T00:09:05.098Z,18.57
2019-02-26T00:11:36.206Z,14.93
2019-02-26T00:14:06.173Z,13.87
2019-02-26T00:16:39.767Z,12.53
2019-02-26T00:19:07.389Z,15.90
2019-02-26T00:21:38.494Z,14.97
2019-02-26T00:24:09.895Z,15.20
2019-02-26T00:26:40.833Z,16.60
2019-02-26T00:29:10.641Z,12.57
2019-02-26T00:31:40.211Z,13.40
2019-02-26T00:34:10.686Z,16.60
2019-02-26T00:36:42.322Z,15.70
2019-02-26T00:39:12.023Z,14.57
2019-02-26T00:41:42.406Z,15.40
2019-02-26T00:44:12.175Z,14.23
2019-02-26T00:46:42.832Z,15.60
2019-02-26T00:49:12.411Z,15.63
2019-02-26T00:51:45.997Z,12.87
2019-02-26T00:54:14.087Z,14.67
2019-02-26T00:56:44.258Z,15.90
2019-02-26T00:59:13.778Z,15.13
2019-02-26T01:01:46.010Z,17.17
2019-02-26T01:04:14.597Z,16.00
2019-02-26T01:06:44.323Z,14.23
2019-02-26T01:09:14.423Z,15.87
2019-02-26T01:11:49.858Z,15.97
2019-02-26T01:14:20.328Z,17.90
2019-02-26T01:16:51.653Z,16.20
2019-02-26T01:19:21.235Z,20.07
2019-02-26T01:21:51.178Z,15.27
2019-02-26T01:24:21.430Z,16.30
2019-02-26T01:26:54.062Z,14.43
2019-02-26T01:29:26.017Z,13.27
2019-02-26T01:31:55.199Z,12.43
2019-02-26T01:34:24.785Z,13.53
2019-02-26T01:36:54.451Z,14.35
2019-02-26T01:39:24.315Z,16.13
2019-02-26T01:41:56.370Z,15.55
2019-02-26T01:44:28.098Z,13.60
2019-02-26T01:46:58.285Z,11.57
2019-02-26T01:49:30.254Z,11.30
2019-02-26T01:52:00.369Z,15.25
2019-02-26T01:54:31.300Z,10.57
2019-02-26T01:57:01.741Z,10.93
2019-02-26T01:59:31.732Z,15.87
2019-02-26T02:02:02.689Z,14.57
2019-02-26T02:04:34.113Z,12.43
2019-02-26T02:07:05.835Z,12.67
2019-02-26T02:09:34.820Z,12.63
2019-02-26T02:12:06.547Z,11.13
2019-02-26T02:14:35.667Z,11.07
2019-02-26T02:17:06.125Z,12.50
2019-02-26T02:19:36.991Z,10.43
2019-02-26T02:22:06.540Z,11.17
2019-02-26T02:24:39.003Z,12.43
2019-02-26T02:27:07.606Z,11.93
2019-02-26T02:29:37.466Z,12.73
2019-02-26T02:32:07.726Z,13.62
2019-02-26T02:34:40.021Z,11.40
2019-02-26T02:37:08.645Z,10.90
2019-02-26T02:39:38.290Z,11.50
2019-02-26T02:42:08.388Z,11.90
2019-02-26T02:44:41.295Z,11.63
2019-02-26T02:47:11.299Z,11.50
2019-02-26T02:49:44.255Z,10.83
2019-02-26T02:52:13.369Z,12.10
2019-02-26T02:54:44.208Z,11.53
2019-02-26T02:57:14.415Z,10.80
2019-02-26T02:59:44.517Z,10.55
2019-02-26T03:02:15.117Z,11.93
2019-02-26T03:04:45.439Z,9.80
2019-02-26T03:07:17.727Z,10.93
2019-02-26T03:09:46.605Z,9.68
2019-02-26T03:12:16.373Z,8.93
2019-02-26T03:14:46.329Z,11.43
2019-02-26T03:17:18.149Z,10.10
2019-02-26T03:19:47.404Z,12.54
2019-02-26T03:22:18.895Z,10.73
2019-02-26T03:24:51.269Z,13.20
2019-02-26T03:27:20.091Z,11.90
2019-02-26T03:29:50.423Z,14.18
2019-02-26T03:32:20.965Z,16.13
2019-02-26T03:34:50.785Z,12.15
2019-02-26T03:37:20.468Z,10.97
2019-02-26T03:39:54.299Z,11.10
2019-02-26T03:42:21.841Z,10.13
2019-02-26T03:44:51.747Z,10.20
2019-02-26T03:47:21.821Z,12.17
2019-02-26T03:49:51.609Z,17.03
2019-02-26T03:52:21.490Z,15.53
2019-02-26T03:54:51.053Z,13.83
2019-02-26T03:57:22.684Z,13.40
2019-02-26T03:59:52.262Z,14.20
2019-02-26T04:02:23.465Z,13.93
2019-02-26T04:04:54.465Z,11.93
2019-02-26T04:07:25.997Z,12.63
2019-02-26T04:09:58.568Z,13.03
2019-02-26T04:12:28.457Z,12.40
2019-02-26T04:14:58.093Z,15.10
2019-02-26T04:17:28.630Z,11.93
2019-02-26T04:19:59.062Z,10.17
2019-02-26T04:22:33.143Z,13.60
2019-02-26T04:25:13.035Z,11.23
2019-02-26T04:28:14.131Z,14.87
2019-02-26T04:30:54.524Z,15.07
2019-02-26T04:33:53.734Z,12.93
2019-02-26T04:36:39.130Z,16.03
2019-02-26T04:39:51.964Z,13.90
2019-02-26T04:42:28.903Z,12.07
2019-02-26T04:45:09.746Z,12.53
2019-02-26T04:48:00.737Z,14.07
2019-02-26T04:50:33.049Z,12.73
2019-02-26T04:53:04.947Z,15.13
2019-02-26T04:55:36.090Z,12.93
2019-02-26T04:58:04.703Z,14.67
2019-02-26T05:00:38.362Z,11.57
2019-02-26T05:03:08.600Z,13.17
2019-02-26T05:05:38.302Z,14.67
2019-02-26T05:08:10.466Z,12.97
2019-02-26T05:10:39.301Z,12.50
2019-02-26T05:13:09.704Z,13.17
2019-02-26T05:15:39.645Z,13.62
2019-02-26T05:18:09.211Z,12.23
2019-02-26T05:20:40.084Z,15.83
2019-02-26T05:23:10.363Z,15.10
2019-02-26T05:25:42.369Z,13.57
2019-02-26T05:28:14.126Z,15.00
2019-02-26T05:30:45.747Z,13.87
2019-02-26T05:33:18.365Z,13.83
2019-02-26T05:35:48.977Z,13.70
2019-02-26T05:38:20.781Z,14.07
2019-02-26T05:40:53.113Z,13.17
2019-02-26T05:43:23.068Z,10.87
2019-02-26T05:45:58.111Z,11.50
2019-02-26T05:48:28.178Z,10.90
2019-02-26T05:51:00.051Z,13.48
2019-02-26T05:53:29.292Z,14.63
2019-02-26T05:55:59.103Z,12.45
2019-02-26T05:58:29.120Z,14.70
2019-02-26T06:00:59.123Z,11.38
2019-02-26T06:03:29.343Z,14.57
2019-02-26T06:06:00.733Z,14.18
2019-02-26T06:08:33.681Z,14.27
2019-02-26T06:11:05.228Z,16.47
2019-02-26T06:13:41.111Z,15.10
2019-02-26T06:16:07.598Z,12.33
2019-02-26T06:18:41.166Z,10.17
2019-02-26T06:21:09.391Z,12.70
2019-02-26T06:23:39.380Z,12.00
2019-02-26T06:26:13.990Z,12.00
2019-02-26T06:28:43.485Z,11.43
2019-02-26T06:31:14.632Z,15.20
2019-02-26T06:33:47.208Z,14.20
2019-02-26T06:36:18.626Z,11.87
2019-02-26T06:38:49.632Z,11.33
2019-02-26T06:41:19.345Z,11.87
2019-02-26T06:43:50.276Z,13.80
2019-02-26T06:46:20.557Z,13.00
2019-02-26T06:48:50.401Z,12.50
2019-02-26T06:51:22.082Z,13.43
2019-02-26T06:53:52.266Z,10.82
2019-02-26T06:56:22.849Z,13.37
2019-02-26T06:58:52.711Z,12.30
2019-02-26T07:01:22.313Z,14.70
2019-02-26T07:03:53.899Z,12.78
2019-02-26T07:06:25.575Z,11.13
2019-02-26T07:08:59.105Z,12.75
2019-02-26T07:11:31.479Z,14.17
2019-02-26T07:14:05.563Z,14.90
2019-02-26T07:16:39.788Z,12.67
2019-02-26T07:19:09.191Z,13.90
2019-02-26T07:21:40.660Z,12.13
2019-02-26T07:24:11.796Z,12.77
2019-02-26T07:26:45.873Z,15.03
2019-02-26T07:29:17.529Z,11.73
2019-02-26T07:31:49.511Z,13.03
2019-02-26T07:34:22.701Z,12.17
2019-02-26T07:36:52.893Z,14.40
2019-02-26T07:39:22.924Z,14.27
2019-02-26T07:41:54.397Z,11.97
2019-02-26T07:44:25.945Z,16.57
2019-02-26T07:46:55.610Z,13.10
2019-02-26T07:49:25.449Z,10.97
2019-02-26T07:51:57.752Z,14.40
2019-02-26T07:54:28.730Z,14.63
2019-02-26T07:57:02.614Z,13.17
2019-02-26T07:59:32.430Z,15.17
2019-02-26T08:02:03.604Z,14.15
2019-02-26T08:04:34.504Z,11.53
2019-02-26T08:07:04.471Z,10.60
2019-02-26T08:09:34.128Z,13.90
2019-02-26T08:12:08.980Z,11.40
2019-02-26T08:14:40.195Z,11.13
2019-02-26T08:17:09.558Z,12.73
2019-02-26T08:19:39.812Z,13.97
2019-02-26T08:22:10.549Z,14.40
2019-02-26T08:24:40.103Z,15.63
2019-02-26T08:27:11.614Z,10.53
2019-02-26T08:29:41.231Z,15.43
2019-02-26T08:32:13.716Z,11.70
2019-02-26T08:34:42.296Z,12.50
2019-02-26T08:37:12.220Z,13.43
2019-02-26T08:39:42.235Z,15.17
2019-02-26T08:42:11.886Z,16.53
2019-02-26T08:44:41.431Z,12.67
2019-02-26T08:47:13.498Z,13.53
2019-02-26T08:49:45.653Z,11.83
2019-02-26T08:52:17.010Z,18.03
2019-02-26T08:54:46.771Z,14.23
2019-02-26T08:57:16.648Z,20.63
2019-02-26T08:59:47.273Z,15.30
2019-02-26T09:02:17.967Z,18.93
2019-02-26T09:04:47.918Z,16.82
2019-02-26T09:07:19.540Z,17.43
2019-02-26T09:09:50.129Z,17.10
2019-02-26T09:12:22.393Z,16.67
2019-02-26T09:14:51.977Z,15.25
2019-02-26T09:17:26.084Z,14.10
2019-02-26T09:20:06.428Z,14.97
2019-02-26T09:22:28.381Z,16.57
2019-02-26T09:24:59.918Z,17.83
2019-02-26T09:27:29.588Z,13.47
2019-02-26T09:30:03.456Z,16.02
2019-02-26T09:32:35.017Z,17.73
2019-02-26T09:35:16.911Z,14.27
2019-02-26T09:37:47.905Z,12.87
2019-02-26T09:40:23.678Z,14.17
2019-02-26T09:42:55.161Z,14.20
2019-02-26T09:45:29.763Z,13.50
2019-02-26T09:48:01.189Z,16.70
2019-02-26T09:50:31.670Z,13.23
2019-02-26T09:53:02.977Z,13.80
2019-02-26T09:55:32.762Z,15.13
2019-02-26T09:58:25.351Z,13.80
2019-02-26T10:00:57.068Z,18.43
2019-02-26T10:03:29.148Z,16.80
2019-02-26T10:05:59.415Z,13.78
2019-02-26T10:08:30.552Z,14.37
2019-02-26T10:11:02.257Z,13.60
2019-02-26T10:13:31.876Z,15.17
2019-02-26T10:16:04.512Z,15.80
2019-02-26T10:18:33.770Z,15.63
2019-02-26T10:21:06.772Z,13.85
2019-02-26T10:23:35.555Z,19.67
2019-02-26T10:26:07.632Z,14.70
2019-02-26T10:28:39.426Z,13.47
2019-02-26T10:31:09.705Z,14.90
2019-02-26T10:33:41.174Z,12.23
2019-02-26T10:36:12.949Z,14.40
2019-02-26T10:38:43.825Z,16.23
2019-02-26T10:41:13.389Z,15.70
2019-02-26T10:43:43.031Z,18.27
2019-02-26T10:46:12.593Z,14.00
2019-02-26T10:48:48.006Z,12.27
2019-02-26T10:51:16.945Z,14.00
2019-02-26T10:53:46.724Z,15.13
2019-02-26T10:56:16.317Z,15.67
2019-02-26T10:58:45.872Z,16.53
2019-02-26T11:01:17.668Z,16.80
2019-02-26T11:03:49.315Z,14.23
2019-02-26T11:06:19.203Z,12.37
2019-02-26T11:08:51.162Z,11.97
2019-02-26T11:11:20.789Z,11.70
2019-02-26T11:13:53.644Z,17.93
2019-02-26T11:16:25.324Z,14.60
2019-02-26T11:18:54.600Z,10.87
2019-02-26T11:21:24.156Z,11.03
2019-02-26T11:23:53.748Z,12.50
2019-02-26T11:26:23.321Z,12.13
2019-02-26T11:28:52.923Z,12.87
2019-02-26T11:31:25.311Z,11.60
2019-02-26T11:33:56.369Z,10.27
2019-02-26T11:36:28.089Z,13.50
2019-02-26T11:38:59.920Z,13.80
2019-02-26T11:41:31.209Z,12.70
2019-02-26T11:44:01.265Z,12.87
2019-02-26T11:46:34.315Z,12.27
2019-02-26T11:49:02.098Z,11.80
2019-02-26T11:51:37.175Z,11.70
2019-02-26T11:54:05.067Z,11.73
2019-02-26T11:56:34.779Z,12.73
2019-02-26T11:59:06.729Z,11.17
2019-02-26T12:01:37.406Z,13.47
2019-02-26T12:04:11.427Z,10.97
2019-02-26T12:06:40.538Z,13.03
2019-02-26T12:09:11.503Z,13.30
2019-02-26T12:11:42.633Z,14.47
2019-02-26T12:14:13.769Z,14.93
2019-02-26T12:16:44.614Z,12.50
2019-02-26T12:19:14.212Z,10.80
2019-02-26T12:21:44.847Z,12.23
2019-02-26T12:24:15.854Z,13.93
2019-02-26T12:26:47.723Z,14.63
2019-02-26T12:29:21.033Z,11.10
2019-02-26T12:31:52.930Z,10.63
2019-02-26T12:34:23.753Z,16.40
2019-02-26T12:39:29.165Z,13.93
2019-02-26T12:41:59.468Z,14.43
2019-02-26T12:44:31.724Z,14.23
2019-02-26T12:47:02.062Z,13.90
2019-02-26T12:49:33.311Z,13.40
2019-02-26T12:52:03.824Z,14.00
2019-02-26T12:54:37.013Z,15.00
2019-02-26T12:57:04.651Z,13.47
2019-02-26T12:59:38.830Z,12.80
2019-02-26T13:04:39.081Z,12.10
2019-02-26T13:07:09.376Z,11.73
2019-02-26T13:09:46.860Z,11.83
2019-02-26T13:12:14.150Z,12.13
2019-02-26T13:14:43.050Z,10.53
2019-02-26T13:17:13.827Z,9.83
2019-02-26T13:19:44.126Z,10.67
2019-02-26T13:22:20.272Z,12.70
2019-02-26T13:24:48.966Z,10.97
2019-02-26T13:27:18.543Z,9.93
2019-02-26T13:29:54.553Z,7.83
2019-02-26T13:32:21.317Z,7.00
2019-02-26T13:34:52.484Z,8.90
2019-02-26T13:37:26.735Z,10.17
2019-02-26T13:39:55.707Z,7.43
2019-02-26T13:42:25.810Z,6.83
2019-02-26T13:44:55.333Z,6.13
2019-02-26T13:47:25.537Z,6.73
2019-02-26T13:49:55.770Z,6.17
2019-02-26T13:52:25.913Z,6.43
2019-02-26T13:54:55.848Z,6.77
2019-02-26T13:57:26.535Z,8.17
2019-02-26T13:59:56.760Z,9.80
2019-02-26T14:02:27.050Z,8.23
2019-02-26T14:04:56.562Z,7.67
2019-02-26T14:07:26.367Z,7.60
2019-02-26T14:09:55.932Z,9.00
2019-02-26T14:12:25.936Z,7.40
2019-02-26T14:14:55.461Z,9.27
2019-02-26T14:17:25.392Z,9.47
2019-02-26T14:19:55.406Z,8.87
2019-02-26T14:22:25.167Z,9.27
2019-02-26T14:24:55.180Z,13.73
2019-02-26T14:27:25.261Z,14.57
2019-02-26T14:29:55.170Z,13.30
2019-02-26T14:32:24.791Z,13.13
2019-02-26T14:34:54.653Z,13.03
2019-02-26T14:37:24.393Z,10.67
2019-02-26T14:39:53.942Z,11.73
2019-02-26T14:42:23.815Z,12.03
2019-02-26T14:44:53.646Z,12.20
2019-02-26T14:47:24.448Z,10.80
2019-02-26T14:49:54.033Z,10.20
2019-02-26T14:52:23.580Z,9.63
2019-02-26T14:54:55.726Z,11.50
2019-02-26T14:57:25.544Z,14.30
2019-02-26T14:59:55.092Z,12.27
2019-02-26T15:02:24.708Z,12.73
2019-02-26T15:04:54.249Z,12.83
2019-02-26T15:07:23.962Z,12.63
2019-02-26T15:09:53.514Z,16.07
2019-02-26T15:12:23.089Z,12.73
2019-02-26T15:14:52.644Z,12.00
2019-02-26T15:17:23.015Z,13.97
2019-02-26T15:19:53.288Z,13.10
2019-02-26T15:22:22.846Z,14.27
2019-02-26T15:24:52.413Z,14.10
2019-02-26T15:27:22.586Z,11.73
2019-02-26T15:29:52.744Z,12.63
2019-02-26T15:32:22.277Z,15.20
2019-02-26T15:34:51.842Z,14.07
2019-02-26T15:37:21.398Z,11.63
2019-02-26T15:39:51.363Z,13.10
2019-02-26T15:42:21.115Z,12.47
2019-02-26T15:44:50.840Z,14.77
2019-02-26T15:47:23.372Z,13.33
2019-02-26T15:49:52.922Z,13.77
2019-02-26T15:52:22.646Z,13.07
2019-02-26T15:54:52.233Z,13.33
2019-02-26T15:57:22.122Z,15.97
2019-02-26T15:59:51.762Z,15.50
2019-02-26T16:02:22.016Z,16.13
2019-02-26T16:04:51.879Z,13.53
2019-02-26T16:07:23.204Z,13.47
2019-02-26T16:09:52.837Z,17.07
2019-02-26T16:12:22.580Z,15.03
2019-02-26T16:14:52.450Z,15.20
2019-02-26T16:17:22.071Z,14.80
2019-02-26T16:19:51.629Z,15.57
2019-02-26T16:22:25.879Z,16.87
2019-02-26T16:24:56.823Z,14.57
2019-02-26T16:27:26.359Z,16.00
2019-02-26T16:29:55.934Z,15.27
2019-02-26T16:32:25.927Z,14.07
2019-02-26T16:34:55.457Z,19.27
2019-02-26T16:37:25.233Z,14.47
2019-02-26T16:39:56.037Z,16.17
2019-02-26T16:42:26.691Z,14.53
2019-02-26T16:44:58.618Z,16.27
2019-02-26T16:47:28.527Z,16.37
2019-02-26T16:50:11.721Z,13.30
2019-02-26T16:52:32.244Z,13.60
2019-02-26T16:55:01.859Z,17.50
2019-02-26T16:57:31.404Z,13.43
2019-02-26T17:00:01.269Z,14.00
2019-02-26T17:02:30.938Z,14.87
2019-02-26T17:05:00.812Z,12.03
2019-02-26T17:07:32.238Z,14.27
2019-02-26T17:10:09.563Z,11.13
2019-02-26T17:12:39.124Z,13.83
2019-02-26T17:15:13.406Z,13.07
2019-02-26T17:17:42.983Z,17.10
2019-02-26T17:20:12.518Z,15.63
2019-02-26T17:22:42.522Z,14.70
2019-02-26T17:25:12.303Z,14.43
2019-02-26T17:27:41.871Z,17.60
2019-02-26T17:30:20.824Z,12.43
2019-02-26T17:32:52.965Z,14.50
2019-02-26T17:35:22.495Z,14.00
2019-02-26T17:37:52.072Z,16.97
2019-02-26T17:40:23.537Z,13.77
2019-02-26T17:42:54.328Z,14.77
2019-02-26T17:45:30.682Z,15.20
2019-02-26T17:48:00.303Z,12.83
2019-02-26T17:50:39.073Z,12.43
2019-02-26T17:53:08.967Z,14.20
2019-02-26T17:55:38.526Z,18.37
2019-02-26T17:58:10.569Z,14.20
2019-02-26T18:00:43.678Z,16.50
2019-02-26T18:03:14.635Z,16.27
2019-02-26T18:05:51.421Z,16.53
2019-02-26T18:08:19.094Z,14.13
2019-02-26T18:10:49.095Z,15.40
2019-02-26T18:13:20.635Z,15.67
2019-02-26T18:15:49.941Z,15.90
2019-02-26T18:18:19.853Z,17.23
2019-02-26T18:20:49.383Z,17.73
2019-02-26T18:23:18.996Z,17.93
2019-02-26T18:25:48.575Z,15.10
2019-02-26T18:28:18.225Z,16.93
2019-02-26T18:30:47.798Z,14.47
2019-02-26T18:33:18.532Z,15.03
2019-02-26T18:35:48.075Z,16.63
2019-02-26T18:38:18.077Z,13.33
2019-02-26T18:40:47.701Z,16.90
2019-02-26T18:43:17.308Z,19.17
2019-02-26T18:45:46.889Z,17.37
2019-02-26T18:48:16.462Z,16.43
2019-02-26T18:50:47.924Z,21.57
2019-02-26T18:53:17.527Z,17.23
2019-02-26T18:55:47.148Z,17.57
2019-02-26T18:58:17.058Z,18.23
2019-02-26T19:00:46.699Z,18.57
2019-02-26T19:03:16.315Z,18.50
2019-02-26T19:05:45.865Z,18.53
2019-02-26T19:08:15.444Z,20.80
2019-02-26T19:10:44.977Z,17.83
2019-02-26T19:13:14.810Z,17.83
2019-02-26T19:15:47.513Z,17.70
2019-02-26T19:18:16.236Z,18.47
2019-02-26T19:20:48.932Z,17.27
2019-02-26T19:23:17.090Z,15.40
2019-02-26T19:25:46.648Z,16.53
2019-02-26T19:28:18.211Z,20.50
2019-02-26T19:30:49.443Z,18.77
2019-02-26T19:33:21.700Z,17.77
2019-02-26T19:35:50.268Z,19.07
2019-02-26T19:38:19.843Z,18.70
2019-02-26T19:40:54.026Z,20.80
2019-02-26T19:43:23.740Z,17.87
2019-02-26T19:45:54.854Z,17.67
2019-02-26T19:48:24.422Z,17.47
2019-02-26T19:50:53.994Z,17.47
2019-02-26T19:53:23.816Z,17.30
2019-02-26T19:55:53.640Z,21.13
2019-02-26T19:58:23.534Z,20.83
2019-02-26T20:00:53.825Z,17.07
2019-02-26T20:03:23.481Z,19.33
2019-02-26T20:05:53.040Z,17.43
2019-02-26T20:08:22.586Z,20.13
2019-02-26T20:10:54.087Z,18.23
2019-02-26T20:13:25.642Z,19.57
2019-02-26T20:15:55.431Z,20.43
2019-02-26T20:18:26.023Z,18.10
2019-02-26T20:20:56.201Z,19.53
2019-02-26T20:23:25.768Z,20.83
2019-02-26T20:25:55.362Z,18.70
2019-02-26T20:28:24.897Z,23.57
2019-02-26T20:30:54.505Z,18.93
2019-02-26T20:33:24.050Z,18.00
2019-02-26T20:35:53.622Z,20.40
2019-02-26T20:38:24.185Z,19.37
2019-02-26T20:40:54.890Z,18.53
2019-02-26T20:43:26.163Z,21.07
2019-02-26T20:45:56.948Z,20.23
2019-02-26T20:48:26.481Z,20.10
2019-02-26T20:50:56.571Z,21.30
2019-02-26T20:53:30.703Z,19.93
2019-02-26T20:55:58.239Z,23.27
2019-02-26T20:58:27.822Z,33.07
2019-02-26T21:00:58.894Z,51.70
2019-02-26T21:03:28.919Z,25.83
2019-02-26T21:05:58.511Z,24.93
2019-02-26T21:08:30.681Z,35.07
2019-02-26T21:11:00.913Z,36.77
2019-02-26T21:13:34.645Z,31.00
2019-02-26T21:16:02.060Z,31.43
2019-02-26T21:18:34.764Z,34.23
2019-02-26T21:21:04.376Z,32.20
2019-02-26T21:23:38.496Z,34.70
2019-02-26T21:26:09.219Z,28.77
2019-02-26T21:28:39.208Z,30.70
2019-02-26T21:31:09.884Z,27.43
2019-02-26T21:33:39.397Z,26.00
2019-02-26T21:36:08.993Z,26.63
2019-02-26T21:38:39.223Z,24.13
2019-02-26T21:41:08.743Z,22.93
2019-02-26T21:43:38.319Z,21.37
2019-02-26T21:46:07.902Z,23.90
2019-02-26T21:48:43.642Z,21.07
2019-02-26T21:51:10.396Z,24.27
2019-02-26T21:53:40.391Z,23.57
2019-02-26T21:56:11.299Z,22.13
2019-02-26T21:58:42.955Z,21.07
2019-02-26T22:01:13.883Z,23.47
2019-02-26T22:03:43.444Z,23.00
2019-02-26T22:06:12.999Z,24.00
2019-02-26T22:08:42.558Z,21.70
2019-02-26T22:11:12.124Z,21.33
2019-02-26T22:13:41.663Z,22.20
2019-02-26T22:16:11.584Z,22.23
2019-02-26T22:18:41.132Z,25.20
2019-02-26T22:21:10.680Z,24.67
2019-02-26T22:23:40.211Z,20.47
2019-02-26T22:26:09.782Z,20.53
2019-02-26T22:28:42.655Z,22.00
2019-02-26T22:31:12.698Z,27.63
2019-02-26T22:33:46.183Z,22.40
2019-02-26T22:36:14.732Z,24.10
2019-02-26T22:38:46.158Z,23.73
2019-02-26T22:41:18.815Z,25.60
2019-02-26T22:43:48.525Z,22.37
2019-02-26T22:46:18.068Z,23.50
2019-02-26T22:48:48.838Z,22.77
2019-02-26T22:51:18.743Z,20.70
2019-02-26T22:53:48.338Z,20.40
2019-02-26T22:56:21.956Z,22.77
2019-02-26T22:58:52.458Z,23.53
2019-02-26T23:01:36.218Z,23.30
2019-02-26T23:04:03.563Z,24.03
2019-02-26T23:06:33.126Z,21.00
2019-02-26T23:09:03.616Z,21.93
2019-02-26T23:11:33.484Z,21.83
2019-02-26T23:14:04.914Z,20.80
2019-02-26T23:16:35.687Z,21.63
2019-02-26T23:19:05.794Z,24.40
2019-02-26T23:21:35.638Z,22.27
2019-02-26T23:24:05.399Z,20.97
2019-02-26T23:26:35.095Z,19.03
2019-02-26T23:29:04.712Z,25.10
2019-02-26T23:31:34.335Z,24.47
2019-02-26T23:34:05.745Z,23.00
2019-02-26T23:36:35.327Z,23.33
2019-02-26T23:39:07.116Z,23.47
2019-02-26T23:41:36.865Z,23.83
2019-02-26T23:44:06.459Z,21.17
2019-02-26T23:46:36.051Z,22.77
2019-02-26T23:49:05.664Z,20.23
2019-02-26T23:51:35.198Z,21.17
2019-02-26T23:54:07.315Z,22.63
2019-02-26T23:56:36.138Z,25.77
2019-02-26T23:59:05.683Z,21.47
